Time;durP1;ratioP1;P1;durP2;ratioP2;P2;SDS_P1;SDS_P2;PMS_P1;PMS_P2;Temp;Humidity;BMP_temperature;BMP_pressure;BME280_temperature;BME280_humidity;BME280_pressure;Samples;Min_cycle;Max_cycle;Signal;HPM_P1;HPM_P2
2023/01/29 00:02:20;;;;;;;13.70;7.90;;;7.00;71.00;;;;;;6214788;23;20064;-76
2023/01/29 00:04:45;;;;;;;14.75;7.80;;;7.00;70.90;;;;;;6214821;23;20001;-75
2023/01/29 00:07:11;;;;;;;12.10;7.63;;;7.00;71.10;;;;;;6214442;23;20000;-75
2023/01/29 00:09:37;;;;;;;16.48;7.82;;;7.00;71.20;;;;;;6214814;23;20001;-76
2023/01/29 00:12:02;;;;;;;11.90;7.43;;;6.90;71.20;;;;;;6214797;23;20023;-75
2023/01/29 00:14:28;;;;;;;13.25;8.05;;;7.00;71.60;;;;;;6215190;23;20012;-74
2023/01/29 00:16:54;;;;;;;11.15;7.75;;;7.00;71.50;;;;;;6214939;23;20068;-75
2023/01/29 00:19:20;;;;;;;13.75;7.45;;;7.00;71.50;;;;;;6188078;23;20087;-77
2023/01/29 00:21:45;;;;;;;12.65;7.45;;;7.00;71.50;;;;;;6214583;23;20017;-75
2023/01/29 00:24:11;;;;;;;13.68;8.00;;;6.90;70.90;;;;;;6214450;23;20009;-75
2023/01/29 00:26:38;;;;;;;13.25;7.20;;;6.80;71.20;;;;;;6214446;23;20031;-77
2023/01/29 00:29:05;;;;;;;11.45;7.15;;;6.80;71.30;;;;;;6214178;23;20089;-76
2023/01/29 00:31:30;;;;;;;10.63;7.38;;;6.90;71.20;;;;;;6214396;23;20337;-75
2023/01/29 00:33:57;;;;;;;11.57;6.97;;;6.80;70.90;;;;;;6214653;23;20012;-74
2023/01/29 00:36:24;;;;;;;12.63;7.60;;;6.80;71.30;;;;;;6214760;23;20439;-76
2023/01/29 00:38:57;;;;;;;11.25;7.65;;;6.80;71.00;;;;;;6214910;23;19997;-76
2023/01/29 00:46:54;;;;;;;;;;;6.80;72.50;;;;;;6217110;23;20020;-76
2023/01/29 00:49:20;;;;;;;13.63;7.75;;;6.70;71.90;;;;;;6216863;23;20257;-76
2023/01/29 00:54:30;;;;;;;12.60;7.50;;;6.70;72.40;;;;;;6216567;23;20010;-75
2023/01/29 00:56:56;;;;;;;15.57;7.10;;;6.70;71.60;;;;;;6189406;23;20009;-76
2023/01/29 00:59:21;;;;;;;11.25;7.03;;;6.80;71.70;;;;;;6216193;23;20031;-74
2023/01/29 01:04:31;;;;;;;;;;;6.60;72.40;;;;;;6216482;23;20079;-75
2023/01/29 01:06:57;;;;;;;11.65;7.15;;;6.60;71.60;;;;;;6215780;23;19896;-75
2023/01/29 01:12:06;;;;;;;13.35;6.95;;;6.50;73.00;;;;;;6216155;23;20511;-74
2023/01/29 01:14:34;;;;;;;12.65;7.40;;;6.60;71.90;;;;;;6216660;23;20028;-76
2023/01/29 01:17:00;;;;;;;19.58;7.53;;;6.50;71.90;;;;;;6216322;23;20071;-74
2023/01/29 01:19:26;;;;;;;11.18;7.50;;;6.50;71.70;;;;;;6215979;23;20035;-75
2023/01/29 01:21:51;;;;;;;12.35;7.75;;;6.50;71.80;;;;;;6215714;23;20334;-74
2023/01/29 01:24:19;;;;;;;13.55;7.15;;;6.60;72.30;;;;;;6215545;23;20099;-75
2023/01/29 01:26:45;;;;;;;11.02;6.45;;;6.50;72.00;;;;;;6216120;23;20249;-75
2023/01/29 01:29:11;;;;;;;11.77;7.13;;;6.40;71.50;;;;;;6215862;23;20446;-75
2023/01/29 01:31:37;;;;;;;11.38;7.20;;;6.40;72.10;;;;;;6215964;23;20016;-75
2023/01/29 01:34:03;;;;;;;11.02;7.43;;;6.40;72.40;;;;;;6216015;23;20313;-76
2023/01/29 01:36:31;;;;;;;9.55;5.82;;;6.40;72.00;;;;;;6216243;23;20365;-75
2023/01/29 01:38:57;;;;;;;14.60;8.48;;;6.30;72.10;;;;;;6216389;23;20015;-75
2023/01/29 01:41:23;;;;;;;13.02;7.07;;;6.40;72.80;;;;;;6215991;23;20001;-75
2023/01/29 01:43:56;;;;;;;16.33;6.85;;;6.30;71.90;;;;;;6216231;23;20338;-75
2023/01/29 01:46:23;;;;;;;13.52;7.47;;;6.20;72.20;;;;;;6215790;23;20091;-75
2023/01/29 01:49:04;;;;;;;14.32;6.55;;;6.20;72.10;;;;;;6215928;23;20005;-75
2023/01/29 01:51:32;;;;;;;11.32;7.05;;;6.20;73.60;;;;;;6222686;23;20035;-74
2023/01/29 01:54:11;;;;;;;10.60;6.38;;;6.20;72.40;;;;;;6221531;23;19997;-76
2023/01/29 01:56:48;;;;;;;12.90;6.95;;;6.20;72.40;;;;;;6218107;23;20011;-74
2023/01/29 01:59:16;;;;;;;16.80;6.68;;;6.20;72.50;;;;;;6229100;23;20300;-76
2023/01/29 02:01:46;;;;;;;9.88;6.35;;;6.10;71.80;;;;;;6215559;23;20374;-76
2023/01/29 02:09:55;;;;;;;11.23;6.63;;;6.00;72.40;;;;;;6215120;23;20055;-74
2023/01/29 02:12:21;;;;;;;11.25;6.45;;;6.10;72.90;;;;;;6214754;23;20427;-75
2023/01/29 02:14:47;;;;;;;11.20;6.90;;;6.00;72.50;;;;;;6215524;23;19996;-74
2023/01/29 02:17:16;;;;;;;10.75;6.50;;;6.00;72.60;;;;;;6188654;23;20458;-75
2023/01/29 02:19:53;;;;;;;12.82;6.97;;;6.00;72.50;;;;;;6189287;23;20003;-75
2023/01/29 02:22:33;;;;;;;10.07;5.88;;;6.10;74.10;;;;;;6215043;23;20004;-75
2023/01/29 02:25:22;;;;;;;11.82;6.45;;;6.00;73.90;;;;;;6215111;23;20007;-75
2023/01/29 02:27:48;;;;;;;11.25;6.35;;;6.00;74.00;;;;;;6172948;23;20005;-77
2023/01/29 02:30:26;;;;;;;10.07;6.45;;;6.00;72.90;;;;;;6215579;23;20023;-75
2023/01/29 02:33:06;;;;;;;12.10;6.20;;;6.00;72.90;;;;;;6215098;23;20004;-74
2023/01/29 02:35:47;;;;;;;10.60;6.82;;;6.00;73.00;;;;;;6215513;23;20008;-75
2023/01/29 02:38:33;;;;;;;11.88;5.97;;;6.00;73.90;;;;;;6214966;23;20001;-76
2023/01/29 02:41:17;;;;;;;12.02;6.85;;;6.00;73.80;;;;;;6215107;23;19996;-74
2023/01/29 02:43:50;;;;;;;13.50;6.43;;;6.00;73.10;;;;;;6215075;23;20008;-75
2023/01/29 02:46:35;;;;;;;11.65;5.93;;;6.00;73.60;;;;;;6214999;23;20067;-73
2023/01/29 02:49:18;;;;;;;9.98;6.53;;;6.00;73.90;;;;;;6214678;23;20005;-76
2023/01/29 02:52:13;;;;;;;10.50;6.97;;;5.90;74.00;;;;;;6214624;23;20019;-75
2023/01/29 02:54:51;;;;;;;11.60;6.57;;;5.90;74.30;;;;;;6215181;23;20001;-75
2023/01/29 02:57:24;;;;;;;11.02;6.75;;;5.80;74.30;;;;;;6215061;23;20071;-74
2023/01/29 03:00:21;;;;;;;10.93;6.95;;;5.80;73.40;;;;;;6214990;23;20001;-75
2023/01/29 03:03:08;;;;;;;11.90;6.35;;;5.70;74.60;;;;;;6214710;23;20011;-75
2023/01/29 03:06:05;;;;;;;12.75;6.60;;;5.80;74.40;;;;;;6214645;23;20100;-76
2023/01/29 03:08:44;;;;;;;13.98;7.10;;;5.70;74.30;;;;;;6199987;23;20003;-74
2023/01/29 03:11:14;;;;;;;13.13;7.75;;;5.70;74.70;;;;;;6214926;23;20062;-75
2023/01/29 03:13:55;;;;;;;10.98;6.80;;;5.70;74.20;;;;;;6215158;23;20001;-74
2023/01/29 03:16:38;;;;;;;15.82;7.60;;;5.70;74.60;;;;;;6215127;23;20001;-75
2023/01/29 03:19:11;;;;;;;12.93;7.13;;;5.70;75.20;;;;;;6214863;23;20047;-75
2023/01/29 03:21:50;;;;;;;11.57;7.22;;;5.70;74.40;;;;;;6214600;23;20093;-75
2023/01/29 03:33:03;;;;;;;15.65;8.18;;;5.70;74.80;;;;;;6214997;23;20047;-74
2023/01/29 03:35:35;;;;;;;12.43;7.43;;;5.70;74.50;;;;;;6214749;23;20343;-74
2023/01/29 03:38:02;;;;;;;11.68;6.88;;;5.70;74.90;;;;;;6215147;23;20376;-75
2023/01/29 03:40:48;;;;;;;12.05;7.25;;;5.80;74.90;;;;;;6215096;23;20083;-76
2023/01/29 03:43:33;;;;;;;12.25;7.40;;;5.80;75.40;;;;;;6215173;23;19997;-74
2023/01/29 03:46:07;;;;;;;10.23;6.53;;;5.80;75.90;;;;;;6214512;23;20001;-74
2023/01/29 03:49:10;;;;;;;12.98;6.57;;;5.80;75.10;;;;;;6214668;23;20080;-75
2023/01/29 03:52:27;;;;;;;10.15;6.47;;;5.80;75.60;;;;;;6214677;23;20031;-74
2023/01/29 03:55:05;;;;;;;12.65;6.57;;;5.80;75.90;;;;;;6164412;23;20008;-74
2023/01/29 03:57:39;;;;;;;10.43;6.70;;;5.80;75.30;;;;;;6214509;23;20051;-75
2023/01/29 04:00:11;;;;;;;;;;;5.70;75.30;;;;;;6215213;23;20034;-75
2023/01/29 04:03:01;;;;;;;11.93;6.28;;;5.60;75.40;;;;;;6188406;23;19907;-74
2023/01/29 04:05:33;;;;;;;10.10;6.40;;;5.70;75.70;;;;;;6213603;23;20005;-74
2023/01/29 04:08:10;;;;;;;11.27;7.15;;;5.70;75.70;;;;;;6214546;23;20027;-75
2023/01/29 04:10:39;;;;;;;11.85;6.40;;;5.70;75.40;;;;;;6213975;23;20343;-75
2023/01/29 04:13:09;;;;;;;10.68;5.97;;;5.70;75.10;;;;;;6214507;23;19997;-75
2023/01/29 04:15:42;;;;;;;9.60;5.68;;;5.70;74.80;;;;;;6216687;23;20047;-75
2023/01/29 04:18:09;;;;;;;10.80;5.85;;;5.70;74.70;;;;;;6216551;23;20075;-75
2023/01/29 04:20:35;;;;;;;9.52;5.57;;;5.70;74.60;;;;;;6165223;23;20040;-75
2023/01/29 04:23:04;;;;;;;12.95;6.28;;;5.70;74.60;;;;;;6189670;23;20011;-75
2023/01/29 04:25:45;;;;;;;10.07;5.82;;;5.70;74.70;;;;;;6216972;23;19997;-74
2023/01/29 04:28:24;;;;;;;10.18;5.53;;;5.70;75.30;;;;;;6216482;23;20001;-75
2023/01/29 04:30:58;;;;;;;9.45;6.00;;;5.70;74.80;;;;;;6216270;23;20009;-74
2023/01/29 04:33:54;;;;;;;9.40;5.90;;;5.60;74.30;;;;;;6216234;23;20004;-74
2023/01/29 04:36:45;;;;;;;8.98;5.57;;;5.60;75.00;;;;;;6216821;23;20004;-75
2023/01/29 04:39:40;;;;;;;9.23;5.85;;;5.50;75.30;;;;;;6216342;23;20023;-76
2023/01/29 04:42:37;;;;;;;10.27;6.05;;;5.50;75.30;;;;;;6135365;23;20294;-76
2023/01/29 04:45:17;;;;;;;12.52;6.00;;;5.50;75.40;;;;;;6185043;23;20012;-75
2023/01/29 04:48:23;;;;;;;12.15;5.43;;;5.50;75.40;;;;;;6216472;23;20035;-75
2023/01/29 04:51:19;;;;;;;9.90;5.45;;;5.50;75.20;;;;;;6216701;23;20020;-75
2023/01/29 04:53:51;;;;;;;11.88;7.05;;;5.50;75.20;;;;;;6216625;23;20008;-75
2023/01/29 04:56:33;;;;;;;9.38;6.03;;;5.40;75.20;;;;;;6216798;23;20009;-75
2023/01/29 04:59:12;;;;;;;9.98;6.25;;;5.40;74.70;;;;;;6216440;23;20000;-74
2023/01/29 05:01:38;;;;;;;12.20;6.53;;;5.30;75.20;;;;;;6216640;23;20011;-74
2023/01/29 05:04:15;;;;;;;10.02;5.95;;;5.30;75.20;;;;;;6216569;23;20327;-74
2023/01/29 05:06:42;;;;;;;9.00;5.78;;;5.30;75.20;;;;;;6216316;23;19997;-75
2023/01/29 05:09:10;;;;;;;14.52;7.47;;;5.30;75.40;;;;;;6216467;23;20004;-74
2023/01/29 05:11:36;;;;;;;10.48;6.05;;;5.30;75.70;;;;;;6217096;23;20012;-75
2023/01/29 05:14:07;;;;;;;9.82;5.95;;;5.30;75.70;;;;;;6222202;23;20335;-75
2023/01/29 05:16:42;;;;;;;11.95;6.55;;;5.30;75.80;;;;;;6233207;23;20001;-74
2023/01/29 05:19:13;;;;;;;11.20;6.28;;;5.30;76.90;;;;;;6243044;23;19989;-73
2023/01/29 05:21:41;;;;;;;9.85;5.80;;;5.30;75.60;;;;;;6243098;23;20004;-73
2023/01/29 05:24:10;;;;;;;9.23;5.45;;;5.30;75.80;;;;;;6235638;23;20004;-75
2023/01/29 05:29:21;;;;;;;9.50;5.97;;;5.20;76.30;;;;;;6216184;23;20398;-74
2023/01/29 05:31:46;;;;;;;11.77;7.47;;;5.20;75.60;;;;;;6215688;23;20012;-75
2023/01/29 05:34:12;;;;;;;12.98;7.00;;;5.20;76.00;;;;;;6215776;23;20068;-74
2023/01/29 05:36:38;;;;;;;13.15;7.68;;;5.20;76.00;;;;;;6215608;23;20004;-76
2023/01/29 05:39:03;;;;;;;11.70;6.95;;;5.20;76.10;;;;;;6188907;23;20355;-74
2023/01/29 05:41:29;;;;;;;13.20;7.00;;;5.20;76.20;;;;;;6215476;23;20004;-73
2023/01/29 05:43:55;;;;;;;10.65;6.53;;;5.20;76.00;;;;;;6215348;23;20372;-74
2023/01/29 05:46:20;;;;;;;10.88;6.68;;;5.30;75.90;;;;;;6215364;23;20044;-74
2023/01/29 05:48:46;;;;;;;11.57;6.50;;;5.30;75.90;;;;;;6215854;23;20001;-73
2023/01/29 05:51:11;;;;;;;9.98;6.00;;;5.30;75.90;;;;;;6215118;23;20044;-73
2023/01/29 05:53:37;;;;;;;11.07;6.88;;;5.20;76.00;;;;;;6215909;23;19997;-74
2023/01/29 05:56:04;;;;;;;11.25;6.45;;;5.20;75.90;;;;;;6189632;23;20024;-74
2023/01/29 05:58:32;;;;;;;11.57;6.57;;;5.20;76.10;;;;;;6215525;23;19997;-75
2023/01/29 06:01:09;;;;;;;10.90;6.50;;;5.20;76.10;;;;;;6189182;23;20500;-74
2023/01/29 06:03:35;;;;;;;10.98;6.35;;;5.20;77.00;;;;;;6215495;23;20391;-74
2023/01/29 06:06:01;;;;;;;11.82;6.43;;;5.20;76.30;;;;;;6215719;23;20007;-75
2023/01/29 06:08:27;;;;;;;9.93;5.95;;;5.30;76.20;;;;;;6215875;23;20001;-75
2023/01/29 06:10:52;;;;;;;12.10;7.00;;;5.20;76.00;;;;;;6188788;23;20009;-75
2023/01/29 06:13:18;;;;;;;9.80;6.35;;;5.20;76.20;;;;;;6215311;23;20067;-75
2023/01/29 06:15:44;;;;;;;13.32;7.53;;;5.10;76.50;;;;;;6215472;23;20410;-75
2023/01/29 06:18:09;;;;;;;11.30;6.25;;;5.20;76.30;;;;;;6215533;23;20330;-74
2023/01/29 06:20:36;;;;;;;10.20;6.13;;;5.20;76.40;;;;;;6215316;23;20028;-75
2023/01/29 06:23:02;;;;;;;12.15;7.53;;;5.20;76.30;;;;;;6215610;23;20016;-75
2023/01/29 06:25:27;;;;;;;11.52;6.93;;;5.20;76.50;;;;;;6215617;23;20004;-74
2023/01/29 06:27:53;;;;;;;11.82;6.57;;;5.20;76.30;;;;;;6213349;23;20072;-74
2023/01/29 06:30:19;;;;;;;13.68;6.03;;;5.20;76.40;;;;;;6215315;23;20020;-76
2023/01/29 06:32:44;;;;;;;14.63;6.80;;;5.20;76.30;;;;;;6215328;23;20383;-75
2023/01/29 06:35:10;;;;;;;12.43;6.82;;;5.10;76.20;;;;;;6215707;23;20031;-74
2023/01/29 06:37:36;;;;;;;13.50;7.13;;;5.20;76.40;;;;;;6215407;23;20138;-75
2023/01/29 06:40:02;;;;;;;13.13;7.60;;;5.10;76.30;;;;;;6215455;23;20030;-75
2023/01/29 06:42:27;;;;;;;11.02;6.55;;;5.10;76.50;;;;;;6215205;23;20339;-74
2023/01/29 06:44:55;;;;;;;15.65;7.43;;;5.10;76.50;;;;;;6215517;23;20076;-74
2023/01/29 06:47:21;;;;;;;11.07;6.93;;;5.10;76.50;;;;;;6215004;23;20001;-75
2023/01/29 06:49:46;;;;;;;12.02;6.90;;;5.10;76.50;;;;;;6215722;23;20003;-75
2023/01/29 06:52:12;;;;;;;11.18;6.53;;;5.10;76.50;;;;;;6215299;23;20040;-74
2023/01/29 06:54:38;;;;;;;15.63;7.15;;;5.10;76.40;;;;;;6188541;23;20001;-75
2023/01/29 06:57:03;;;;;;;13.23;7.18;;;5.20;76.70;;;;;;6214856;23;20008;-75
2023/01/29 06:59:29;;;;;;;12.88;8.35;;;5.20;76.40;;;;;;6214947;23;20062;-75
2023/01/29 07:01:55;;;;;;;10.43;6.63;;;5.20;76.30;;;;;;6188293;23;20051;-75
2023/01/29 07:04:20;;;;;;;17.48;8.45;;;5.20;76.20;;;;;;6215169;23;20032;-75
2023/01/29 07:06:46;;;;;;;10.63;6.80;;;5.30;76.50;;;;;;6214907;23;20443;-75
2023/01/29 07:09:12;;;;;;;13.35;7.72;;;5.40;76.20;;;;;;6215150;23;20339;-75
2023/01/29 07:11:39;;;;;;;11.35;6.80;;;5.60;76.20;;;;;;6215243;23;20015;-75
2023/01/29 07:14:05;;;;;;;17.10;7.72;;;5.70;76.10;;;;;;6188495;23;20005;-76
2023/01/29 07:16:31;;;;;;;10.50;6.60;;;5.80;75.90;;;;;;6215004;23;20071;-74
2023/01/29 07:18:57;;;;;;;12.00;6.75;;;5.90;75.50;;;;;;6215146;23;20068;-74
2023/01/29 07:21:23;;;;;;;12.13;7.28;;;6.00;75.40;;;;;;6215247;23;20424;-74
2023/01/29 07:23:49;;;;;;;10.68;6.78;;;6.00;74.90;;;;;;6163819;23;20338;-76
2023/01/29 07:26:15;;;;;;;12.18;7.03;;;6.00;74.80;;;;;;6214815;23;20423;-75
2023/01/29 07:28:40;;;;;;;10.85;7.10;;;6.10;75.30;;;;;;6214544;23;20024;-75
2023/01/29 07:31:07;;;;;;;11.90;7.18;;;6.10;74.90;;;;;;6214552;23;20100;-75
2023/01/29 07:33:33;;;;;;;13.00;7.50;;;6.10;75.20;;;;;;6215012;23;20037;-74
2023/01/29 07:35:59;;;;;;;11.98;7.43;;;6.20;74.80;;;;;;6214750;23;20088;-75
2023/01/29 07:38:25;;;;;;;11.68;7.28;;;6.30;74.40;;;;;;6214693;23;20412;-75
2023/01/29 07:40:53;;;;;;;13.23;6.90;;;6.20;73.80;;;;;;6214983;23;20013;-75
2023/01/29 07:43:19;;;;;;;12.25;7.35;;;6.20;74.10;;;;;;6215158;23;20000;-74
2023/01/29 07:45:45;;;;;;;12.07;6.88;;;6.40;74.90;;;;;;6215256;23;20378;-74
2023/01/29 07:48:12;;;;;;;12.27;6.70;;;6.40;73.50;;;;;;6214476;23;20046;-75
2023/01/29 07:50:38;;;;;;;11.43;6.82;;;6.50;74.50;;;;;;6214459;23;20005;-75
2023/01/29 07:53:04;;;;;;;12.05;7.53;;;6.60;74.00;;;;;;6214858;23;20001;-76
2023/01/29 07:55:30;;;;;;;11.05;6.95;;;6.80;74.00;;;;;;6215023;23;20061;-75
2023/01/29 07:57:56;;;;;;;11.50;6.30;;;6.90;73.00;;;;;;6214810;23;20047;-75
2023/01/29 08:00:22;;;;;;;11.52;7.28;;;6.90;72.70;;;;;;6214861;23;20334;-75
2023/01/29 08:02:48;;;;;;;11.98;6.85;;;6.90;72.80;;;;;;6188326;23;20005;-76
2023/01/29 08:05:13;;;;;;;9.75;6.35;;;6.80;71.80;;;;;;6214833;23;20000;-75
2023/01/29 08:07:39;;;;;;;10.70;6.78;;;6.90;72.90;;;;;;6214341;23;20011;-77
2023/01/29 08:10:05;;;;;;;12.27;7.32;;;6.90;72.60;;;;;;6214653;23;20028;-76
2023/01/29 08:12:30;;;;;;;11.30;6.28;;;6.90;72.40;;;;;;6214224;23;20008;-75
2023/01/29 08:14:56;;;;;;;11.60;7.18;;;6.80;72.00;;;;;;6214685;23;20071;-74
2023/01/29 08:17:22;;;;;;;14.23;7.63;;;6.80;72.20;;;;;;6215710;23;20008;-75
2023/01/29 08:19:47;;;;;;;11.65;7.07;;;6.70;72.00;;;;;;6216639;23;20004;-74
2023/01/29 08:22:15;;;;;;;16.10;7.43;;;6.80;72.20;;;;;;6216547;23;20012;-75
2023/01/29 08:24:41;;;;;;;14.32;8.63;;;6.80;72.20;;;;;;6235367;23;20001;-75
2023/01/29 08:27:07;;;;;;;11.90;7.15;;;6.90;72.10;;;;;;6242150;23;20054;-75
2023/01/29 08:29:32;;;;;;;15.93;7.07;;;6.90;72.10;;;;;;6224420;23;20374;-75
2023/01/29 08:31:59;;;;;;;12.77;7.50;;;7.00;71.80;;;;;;6214464;23;20051;-73
2023/01/29 08:34:25;;;;;;;13.57;6.53;;;7.00;72.10;;;;;;6214490;23;20004;-73
2023/01/29 08:36:52;;;;;;;12.55;6.13;;;7.00;71.40;;;;;;6215462;23;20011;-79
2023/01/29 08:39:18;;;;;;;11.23;6.53;;;7.10;71.60;;;;;;6215655;23;20423;-76
2023/01/29 08:41:43;;;;;;;9.95;6.63;;;7.10;70.70;;;;;;6214758;23;20032;-74
2023/01/29 08:44:09;;;;;;;11.57;7.40;;;7.10;71.20;;;;;;6215305;23;19996;-78
2023/01/29 08:46:36;;;;;;;11.48;6.03;;;7.10;71.00;;;;;;6214968;23;20399;-73
2023/01/29 08:49:01;;;;;;;10.98;6.35;;;7.10;70.30;;;;;;6215204;23;20008;-75
2023/01/29 08:51:27;;;;;;;12.00;6.60;;;7.10;70.20;;;;;;6215005;23;20425;-77
2023/01/29 08:53:53;;;;;;;9.95;6.18;;;7.20;71.10;;;;;;6214734;23;20001;-76
2023/01/29 08:56:19;;;;;;;8.90;5.70;;;7.30;70.10;;;;;;6214754;23;20005;-73
2023/01/29 08:58:44;;;;;;;11.30;6.47;;;7.30;70.20;;;;;;6215044;23;19997;-76
2023/01/29 09:01:12;;;;;;;10.27;6.18;;;7.30;69.50;;;;;;6216150;23;20462;-75
2023/01/29 09:03:42;;;;;;;10.35;6.32;;;7.40;69.00;;;;;;6217226;23;20066;-75
2023/01/29 09:06:10;;;;;;;10.45;6.13;;;7.40;68.90;;;;;;6216260;23;20004;-76
2023/01/29 09:08:36;;;;;;;11.95;6.55;;;7.40;68.80;;;;;;6215886;23;20051;-73
2023/01/29 09:11:01;;;;;;;10.30;5.82;;;7.50;68.80;;;;;;6215588;23;20021;-76
2023/01/29 09:13:27;;;;;;;10.85;6.57;;;7.60;68.90;;;;;;6216189;23;20001;-77
2023/01/29 09:15:53;;;;;;;10.50;6.20;;;7.60;69.10;;;;;;6217080;23;20065;-80
2023/01/29 09:18:20;;;;;;;11.02;6.47;;;7.70;68.50;;;;;;6216520;23;20355;-76
2023/01/29 09:20:46;;;;;;;10.88;6.18;;;7.80;68.30;;;;;;6218115;23;20005;-77
2023/01/29 09:23:12;;;;;;;12.27;7.28;;;7.80;67.90;;;;;;6219697;23;20024;-76
2023/01/29 09:25:38;;;;;;;10.18;6.05;;;7.90;68.30;;;;;;6216903;23;20001;-77
2023/01/29 09:28:05;;;;;;;13.18;6.50;;;8.00;68.20;;;;;;6215955;23;20008;-80
2023/01/29 09:30:32;;;;;;;11.07;6.38;;;8.10;68.20;;;;;;6215242;23;20012;-76
2023/01/29 09:32:59;;;;;;;10.50;6.00;;;8.10;67.90;;;;;;6215963;23;20008;-75
2023/01/29 09:35:25;;;;;;;10.35;6.50;;;8.20;67.70;;;;;;6215893;23;20078;-78
2023/01/29 09:37:51;;;;;;;12.82;6.65;;;8.30;67.80;;;;;;6215941;23;20427;-77
2023/01/29 09:40:24;;;;;;;10.35;6.32;;;8.40;67.80;;;;;;6189082;23;20310;-77
2023/01/29 09:43:00;;;;;;;13.15;6.63;;;8.50;67.60;;;;;;6215952;23;20030;-78
2023/01/29 09:45:28;;;;;;;11.05;6.63;;;8.60;68.40;;;;;;6215639;23;20000;-78
2023/01/29 09:48:00;;;;;;;12.35;6.88;;;8.70;67.30;;;;;;6217132;23;20001;-78
2023/01/29 09:50:38;;;;;;;8.77;5.88;;;8.80;67.00;;;;;;6215923;23;20001;-76
2023/01/29 09:53:28;;;;;;;11.02;6.90;;;8.90;67.40;;;;;;6189231;23;20012;-80
2023/01/29 09:56:19;;;;;;;11.60;5.90;;;9.00;66.50;;;;;;6215831;23;20177;-78
2023/01/29 09:58:45;;;;;;;10.30;6.10;;;9.10;67.10;;;;;;6215849;23;20003;-79
2023/01/29 10:01:31;;;;;;;10.18;5.82;;;9.20;65.60;;;;;;6215764;23;20005;-75
2023/01/29 10:04:06;;;;;;;13.40;6.68;;;9.20;65.30;;;;;;6215406;23;20068;-74
2023/01/29 10:06:46;;;;;;;9.40;6.10;;;9.30;65.40;;;;;;6215663;23;20119;-80
2023/01/29 10:09:30;;;;;;;13.02;6.45;;;9.30;65.10;;;;;;6215893;23;20000;-78
2023/01/29 10:12:11;;;;;;;11.75;7.40;;;9.50;65.40;;;;;;6213237;23;20089;-77
2023/01/29 10:15:08;;;;;;;11.95;6.25;;;9.60;65.70;;;;;;6188688;23;20004;-76
2023/01/29 10:17:39;;;;;;;8.93;5.63;;;9.70;65.20;;;;;;6180491;23;20005;-77
2023/01/29 10:20:26;;;;;;;11.57;6.05;;;9.80;64.60;;;;;;6215571;23;20000;-77
2023/01/29 10:23:11;;;;;;;11.82;6.07;;;9.90;64.60;;;;;;6215264;23;20116;-76
2023/01/29 10:25:40;;;;;;;9.60;5.60;;;10.00;63.50;;;;;;6214915;23;20004;-85
2023/01/29 10:28:46;;;;;;;8.65;5.30;;;10.20;63.50;;;;;;6214728;23;20008;-81
2023/01/29 10:31:33;;;;;;;9.57;5.40;;;10.20;62.50;;;;;;6203376;23;20107;-82
2023/01/29 10:34:20;;;;;;;12.10;5.55;;;10.30;62.40;;;;;;6189366;23;20026;-81
2023/01/29 10:36:48;;;;;;;8.88;5.30;;;10.30;62.40;;;;;;6218138;23;20008;-78
2023/01/29 10:39:19;;;;;;;11.30;6.25;;;10.40;61.70;;;;;;6217999;23;20072;-80
2023/01/29 10:42:12;;;;;;;10.70;6.22;;;10.50;61.70;;;;;;6215964;23;20099;-75
2023/01/29 10:44:44;;;;;;;14.07;6.03;;;10.50;62.00;;;;;;6220410;23;20410;-78
2023/01/29 10:47:28;;;;;;;9.68;5.85;;;10.70;61.80;;;;;;6225721;23;20338;-75
2023/01/29 10:50:12;;;;;;;;;;;10.70;61.60;;;;;;6220889;23;20375;-73
2023/01/29 10:52:57;;;;;;;10.13;6.10;;;10.80;59.90;;;;;;6236847;23;19908;-77
2023/01/29 10:55:50;;;;;;;11.50;6.22;;;10.80;61.10;;;;;;6235973;23;20007;-74
2023/01/29 10:58:48;;;;;;;9.55;5.70;;;10.90;61.60;;;;;;6225404;23;20078;-73
2023/01/29 11:01:14;;;;;;;12.30;6.63;;;10.90;60.20;;;;;;6221262;23;20108;-74
2023/01/29 11:03:41;;;;;;;8.50;5.47;;;11.00;60.30;;;;;;6225941;23;20000;-74
2023/01/29 11:06:10;;;;;;;9.02;5.65;;;11.10;60.70;;;;;;6215470;23;20063;-74
2023/01/29 11:09:07;;;;;;;12.45;6.25;;;11.20;60.10;;;;;;6214685;23;20035;-76
2023/01/29 11:11:42;;;;;;;10.55;5.70;;;11.30;60.60;;;;;;6204967;23;20017;-72
2023/01/29 11:14:20;;;;;;;10.85;6.30;;;11.30;59.00;;;;;;6214271;23;20050;-72
2023/01/29 11:16:47;;;;;;;8.25;5.40;;;11.40;59.40;;;;;;6214283;23;20052;-77
2023/01/29 11:19:14;;;;;;;9.52;5.43;;;11.50;59.30;;;;;;6214319;23;20005;-74
2023/01/29 11:21:55;;;;;;;9.57;5.90;;;11.50;58.50;;;;;;6214303;23;20004;-74
2023/01/29 11:24:20;;;;;;;9.43;6.07;;;11.60;59.00;;;;;;6213894;23;20005;-74
2023/01/29 11:26:48;;;;;;;9.48;5.05;;;11.60;58.50;;;;;;6214331;23;20071;-74
2023/01/29 11:29:43;;;;;;;;;;;;;;;;;;;;;
2023/01/29 11:32:55;;;;;;;9.80;5.60;;;11.60;57.60;;;;;;6214293;23;20095;-68
2023/01/29 11:39:29;;;;;;;;;;;;;;;;;;;;;
2023/01/29 11:42:20;;;;;;;9.25;4.88;;;11.80;58.50;;;;;;6214648;23;20088;-69
2023/01/29 11:44:48;;;;;;;9.77;5.35;;;12.00;57.30;;;;;;6214482;23;20434;-71
2023/01/29 11:47:39;;;;;;;10.77;5.68;;;12.10;57.10;;;;;;6180372;23;20011;-69
2023/01/29 11:50:26;;;;;;;7.80;4.90;;;12.20;57.00;;;;;;6210746;23;20005;-67
2023/01/29 11:53:23;;;;;;;9.18;5.07;;;12.20;56.90;;;;;;6213971;23;20397;-70
2023/01/29 11:55:58;;;;;;;10.73;5.53;;;12.30;56.70;;;;;;6199376;23;20009;-70
2023/01/29 11:58:48;;;;;;;8.85;5.35;;;12.30;56.60;;;;;;6162209;23;20315;-70
2023/01/29 12:01:49;;;;;;;10.05;5.95;;;12.40;56.80;;;;;;6186415;23;20000;-69
2023/01/29 12:04:49;;;;;;;10.40;5.38;;;12.40;56.50;;;;;;6212084;23;20009;-71
2023/01/29 12:18:58;;;;;;;8.57;4.18;;;12.70;55.40;;;;;;5970592;24;20432;-66
2023/01/29 12:22:08;;;;;;;9.13;5.20;;;12.80;55.50;;;;;;6021289;23;20007;-66
2023/01/29 12:25:26;;;;;;;11.65;5.57;;;12.80;55.80;;;;;;5952478;24;20014;-66
2023/01/29 12:28:31;;;;;;;8.15;4.70;;;12.90;55.00;;;;;;5974649;23;20408;-69
2023/01/29 12:31:24;;;;;;;;;;;12.90;55.00;;;;;;5981596;23;20471;-67
2023/01/29 12:34:32;;;;;;;7.28;4.82;;;12.90;52.80;;;;;;6083582;23;19905;-68
2023/01/29 12:38:03;;;;;;;;;;;;;;;;;;;;;
2023/01/29 12:44:49;;;;;;;8.45;4.50;;;13.00;54.20;;;;;;5984218;24;20019;-74
2023/01/29 12:50:46;;;;;;;10.30;5.60;;;13.30;54.10;;;;;;5993592;23;20435;-70
2023/01/29 12:53:56;;;;;;;9.07;4.88;;;13.40;53.70;;;;;;6073108;23;20093;-70
2023/01/29 13:00:21;;;;;;;;;;;;;;;;;;;;;
2023/01/29 13:09:51;;;;;;;7.43;4.50;;;13.40;51.00;;;;;;6200929;23;20052;-72
2023/01/29 13:12:37;;;;;;;7.43;4.38;;;13.40;52.80;;;;;;6215529;23;20014;-70
2023/01/29 13:15:35;;;;;;;14.13;6.53;;;13.50;52.10;;;;;;6215102;23;20000;-69
2023/01/29 13:18:32;;;;;;;8.38;5.22;;;13.50;52.40;;;;;;6215503;23;20003;-69
2023/01/29 13:21:21;;;;;;;7.90;4.90;;;13.50;51.80;;;;;;6215671;23;20001;-71
2023/01/29 13:23:59;;;;;;;7.22;4.82;;;13.50;52.00;;;;;;6169360;23;20074;-73
2023/01/29 13:27:17;;;;;;;7.50;4.45;;;13.60;51.90;;;;;;6188679;23;20304;-70
2023/01/29 13:29:46;;;;;;;6.88;4.30;;;13.60;51.60;;;;;;6215257;23;20439;-74
2023/01/29 13:32:27;;;;;;;7.93;4.65;;;13.70;51.30;;;;;;6188324;23;20020;-69
2023/01/29 13:35:25;;;;;;;6.03;3.83;;;13.70;51.00;;;;;;6188918;23;20008;-69
2023/01/29 13:38:02;;;;;;;6.35;4.10;;;13.70;50.70;;;;;;6214675;23;20005;-70
2023/01/29 13:40:33;;;;;;;7.60;4.70;;;13.70;49.60;;;;;;6215589;23;20080;-70
2023/01/29 13:43:33;;;;;;;9.13;4.55;;;13.70;50.10;;;;;;6215041;23;20450;-73
2023/01/29 13:46:35;;;;;;;;;;;;;;;;;;;;;
2023/01/29 13:50:11;;;;;;;6.93;4.53;;;13.80;50.20;;;;;;6121413;23;20079;-74
2023/01/29 13:53:41;;;;;;;7.75;4.32;;;13.80;49.90;;;;;;6123761;23;20364;-72
2023/01/29 13:56:37;;;;;;;10.00;4.82;;;13.80;50.00;;;;;;6122680;23;20030;-72
2023/01/29 13:59:45;;;;;;;8.80;5.05;;;13.90;50.30;;;;;;6100691;23;20041;-70
2023/01/29 14:02:54;;;;;;;7.00;3.80;;;14.00;49.90;;;;;;6108884;23;20105;-70
2023/01/29 14:09:29;;;;;;;14.90;11.23;;;13.80;49.10;;;;;;6122327;23;20097;-71
2023/01/29 14:12:31;;;;;;;7.47;5.03;;;13.80;48.60;;;;;;6215665;23;20342;-71
2023/01/29 14:16:01;;;;;;;6.80;4.20;;;13.80;49.10;;;;;;6216149;23;20013;-71
2023/01/29 14:19:06;;;;;;;6.88;3.92;;;13.80;49.10;;;;;;6098706;23;20479;-73
2023/01/29 14:25:41;;;;;;;;;;;;;;;;;;;;;
2023/01/29 14:29:02;;;;;;;7.45;3.95;;;13.70;47.90;;;;;;6208844;23;20075;-73
2023/01/29 14:32:18;;;;;;;6.68;3.83;;;13.60;48.50;;;;;;6188256;23;20358;-72
2023/01/29 14:34:57;;;;;;;6.70;4.15;;;13.60;48.10;;;;;;6214373;23;20012;-71
2023/01/29 14:40:36;;;;;;;8.20;5.13;;;13.70;49.10;;;;;;6153527;23;20007;-72
2023/01/29 14:43:18;;;;;;;7.22;4.00;;;13.70;47.70;;;;;;6215379;23;20055;-73
2023/01/29 14:45:48;;;;;;;7.35;4.25;;;13.70;49.10;;;;;;6214443;23;20011;-73
2023/01/29 14:48:35;;;;;;;8.15;4.70;;;13.60;48.60;;;;;;6187898;23;20028;-69
2023/01/29 14:51:13;;;;;;;7.03;4.15;;;13.50;48.70;;;;;;6214150;23;20457;-71
2023/01/29 14:54:11;;;;;;;8.48;5.07;;;13.50;47.10;;;;;;6214362;23;20067;-73
2023/01/29 15:00:58;;;;;;;7.95;4.82;;;13.40;47.60;;;;;;6093676;23;20041;-73